sensor_id;sensor_type;location;lat;lon;timestamp;pressure;altitude;pressure_sealevel;temperature;humidity
41703;BME280;861;48.808;9.006;2023-02-15T00:02:26;98376.41;;;4.44;70.46
41703;BME280;861;48.808;9.006;2023-02-15T00:04:52;98376.59;;;4.48;69.25
41703;BME280;861;48.808;9.006;2023-02-15T00:07:19;98363.09;;;4.39;70.11
41703;BME280;861;48.808;9.006;2023-02-15T00:09:47;98361.66;;;4.42;69.74
41703;BME280;861;48.808;9.006;2023-02-15T00:12:15;98364.00;;;4.26;70.30
41703;BME280;861;48.808;9.006;2023-02-15T00:14:42;98359.06;;;4.20;71.46
41703;BME280;861;48.808;9.006;2023-02-15T00:17:08;98359.06;;;4.20;71.58
41703;BME280;861;48.808;9.006;2023-02-15T00:19:34;98354.91;;;4.14;71.29
41703;BME280;861;48.808;9.006;2023-02-15T00:22:01;98344.75;;;4.19;71.01
41703;BME280;861;48.808;9.006;2023-02-15T00:24:27;98342.19;;;4.53;69.15
41703;BME280;861;48.808;9.006;2023-02-15T00:26:53;98352.34;;;4.65;68.09
41703;BME280;861;48.808;9.006;2023-02-15T00:29:20;98350.06;;;4.33;69.31
41703;BME280;861;48.808;9.006;2023-02-15T00:31:47;98345.94;;;4.35;69.80
41703;BME280;861;48.808;9.006;2023-02-15T00:34:26;98346.44;;;4.46;69.17
41703;BME280;861;48.808;9.006;2023-02-15T00:36:53;98347.69;;;4.40;69.05
41703;BME280;861;48.808;9.006;2023-02-15T00:39:20;98354.69;;;4.41;68.90
41703;BME280;861;48.808;9.006;2023-02-15T00:41:47;98351.97;;;4.32;68.56
41703;BME280;861;48.808;9.006;2023-02-15T00:44:14;98352.41;;;4.17;69.34
41703;BME280;861;48.808;9.006;2023-02-15T00:46:41;98347.19;;;4.29;69.66
41703;BME280;861;48.808;9.006;2023-02-15T00:49:08;98345.75;;;4.32;69.57
41703;BME280;861;48.808;9.006;2023-02-15T00:51:35;98348.81;;;4.39;69.53
41703;BME280;861;48.808;9.006;2023-02-15T00:54:01;98349.88;;;4.29;68.92
41703;BME280;861;48.808;9.006;2023-02-15T00:56:28;98348.63;;;4.27;68.99
41703;BME280;861;48.808;9.006;2023-02-15T00:58:55;98345.63;;;4.28;68.27
41703;BME280;861;48.808;9.006;2023-02-15T01:01:22;98338.88;;;4.09;69.25
41703;BME280;861;48.808;9.006;2023-02-15T01:03:49;98332.28;;;3.84;69.45
41703;BME280;861;48.808;9.006;2023-02-15T01:06:18;98341.97;;;3.63;70.33
41703;BME280;861;48.808;9.006;2023-02-15T01:08:46;98346.22;;;3.56;70.90
41703;BME280;861;48.808;9.006;2023-02-15T01:11:20;98345.28;;;3.60;71.03
41703;BME280;861;48.808;9.006;2023-02-15T01:13:53;98338.97;;;3.65;70.40
41703;BME280;861;48.808;9.006;2023-02-15T01:16:26;98340.88;;;3.64;70.83
41703;BME280;861;48.808;9.006;2023-02-15T01:18:55;98348.03;;;3.69;70.90
41703;BME280;861;48.808;9.006;2023-02-15T01:21:24;98341.72;;;3.73;70.42
41703;BME280;861;48.808;9.006;2023-02-15T01:23:52;98348.69;;;3.74;71.24
41703;BME280;861;48.808;9.006;2023-02-15T01:26:19;98345.38;;;3.77;71.40
41703;BME280;861;48.808;9.006;2023-02-15T01:28:46;98337.69;;;3.93;70.04
41703;BME280;861;48.808;9.006;2023-02-15T01:31:17;98338.13;;;3.86;70.22
41703;BME280;861;48.808;9.006;2023-02-15T01:33:47;98338.22;;;4.03;69.46
41703;BME280;861;48.808;9.006;2023-02-15T01:36:14;98348.69;;;4.05;69.12
41703;BME280;861;48.808;9.006;2023-02-15T01:38:43;98340.06;;;3.94;69.67
41703;BME280;861;48.808;9.006;2023-02-15T01:41:09;98343.19;;;3.79;70.26
41703;BME280;861;48.808;9.006;2023-02-15T01:43:57;98338.44;;;3.85;69.86
41703;BME280;861;48.808;9.006;2023-02-15T01:46:42;98338.84;;;3.70;70.05
41703;BME280;861;48.808;9.006;2023-02-15T01:49:23;98337.91;;;3.74;69.52
41703;BME280;861;48.808;9.006;2023-02-15T01:51:53;98328.88;;;3.70;69.38
41703;BME280;861;48.808;9.006;2023-02-15T01:54:33;98329.63;;;3.62;69.74
41703;BME280;861;48.808;9.006;2023-02-15T01:57:17;98331.50;;;3.62;70.52
41703;BME280;861;48.808;9.006;2023-02-15T01:59:56;98332.34;;;3.71;69.43
41703;BME280;861;48.808;9.006;2023-02-15T02:02:28;98337.53;;;3.59;69.49
41703;BME280;861;48.808;9.006;2023-02-15T02:05:01;98336.19;;;3.48;70.60
41703;BME280;861;48.808;9.006;2023-02-15T02:07:43;98334.22;;;3.40;70.48
41703;BME280;861;48.808;9.006;2023-02-15T02:10:18;98330.63;;;3.22;72.31
41703;BME280;861;48.808;9.006;2023-02-15T02:12:57;98328.78;;;3.31;72.19
41703;BME280;861;48.808;9.006;2023-02-15T02:16:13;98318.69;;;3.37;71.64
41703;BME280;861;48.808;9.006;2023-02-15T02:19:37;98322.97;;;3.38;72.16
41703;BME280;861;48.808;9.006;2023-02-15T02:23:20;98312.47;;;3.58;71.04
41703;BME280;861;48.808;9.006;2023-02-15T02:29:40;98313.41;;;3.54;70.83
41703;BME280;861;48.808;9.006;2023-02-15T02:33:17;98318.47;;;3.55;69.99
41703;BME280;861;48.808;9.006;2023-02-15T02:39:54;98314.34;;;3.27;71.60
41703;BME280;861;48.808;9.006;2023-02-15T02:42:48;98307.97;;;3.23;72.23
41703;BME280;861;48.808;9.006;2023-02-15T02:45:37;98307.81;;;3.42;72.39
41703;BME280;861;48.808;9.006;2023-02-15T02:48:19;98309.78;;;3.28;74.42
41703;BME280;861;48.808;9.006;2023-02-15T02:50:50;98302.88;;;3.13;75.05
41703;BME280;861;48.808;9.006;2023-02-15T02:53:17;98301.41;;;3.29;75.14
41703;BME280;861;48.808;9.006;2023-02-15T02:55:59;98302.84;;;3.66;71.44
41703;BME280;861;48.808;9.006;2023-02-15T02:59:05;98305.38;;;3.62;72.84
41703;BME280;861;48.808;9.006;2023-02-15T03:02:25;98305.44;;;3.40;74.88
41703;BME280;861;48.808;9.006;2023-02-15T03:05:12;98296.47;;;3.31;76.10
41703;BME280;861;48.808;9.006;2023-02-15T03:07:52;98300.66;;;3.37;74.11
41703;BME280;861;48.808;9.006;2023-02-15T03:10:25;98303.50;;;3.41;74.73
41703;BME280;861;48.808;9.006;2023-02-15T03:12:53;98292.59;;;3.37;76.13
41703;BME280;861;48.808;9.006;2023-02-15T03:15:34;98291.72;;;3.28;76.54
41703;BME280;861;48.808;9.006;2023-02-15T03:18:48;98291.78;;;3.37;76.31
41703;BME280;861;48.808;9.006;2023-02-15T03:21:51;98293.03;;;3.39;75.63
41703;BME280;861;48.808;9.006;2023-02-15T03:25:21;98289.19;;;3.54;76.08
41703;BME280;861;48.808;9.006;2023-02-15T03:28:12;98293.28;;;3.51;75.69
41703;BME280;861;48.808;9.006;2023-02-15T03:30:52;98289.28;;;3.40;76.57
41703;BME280;861;48.808;9.006;2023-02-15T03:33:26;98290.13;;;3.27;76.82
41703;BME280;861;48.808;9.006;2023-02-15T03:36:04;98285.09;;;3.12;77.35
41703;BME280;861;48.808;9.006;2023-02-15T03:38:59;98289.44;;;3.22;77.46
41703;BME280;861;48.808;9.006;2023-02-15T03:41:51;98293.31;;;3.29;76.51
41703;BME280;861;48.808;9.006;2023-02-15T03:44:32;98293.75;;;3.23;76.12
41703;BME280;861;48.808;9.006;2023-02-15T03:47:19;98298.63;;;3.21;76.29
41703;BME280;861;48.808;9.006;2023-02-15T03:50:20;98293.06;;;2.95;76.26
41703;BME280;861;48.808;9.006;2023-02-15T03:53:17;98301.31;;;2.98;74.92
41703;BME280;861;48.808;9.006;2023-02-15T03:55:53;98304.59;;;2.73;75.58
41703;BME280;861;48.808;9.006;2023-02-15T03:58:21;98304.13;;;2.93;75.07
41703;BME280;861;48.808;9.006;2023-02-15T04:01:54;98299.44;;;2.99;74.04
41703;BME280;861;48.808;9.006;2023-02-15T04:04:46;98296.97;;;2.89;73.64
41703;BME280;861;48.808;9.006;2023-02-15T04:07:13;98293.78;;;2.87;74.31
41703;BME280;861;48.808;9.006;2023-02-15T04:09:39;98292.09;;;2.91;74.32
41703;BME280;861;48.808;9.006;2023-02-15T04:12:24;98291.59;;;2.89;74.51
41703;BME280;861;48.808;9.006;2023-02-15T04:14:50;98284.25;;;2.81;74.71
41703;BME280;861;48.808;9.006;2023-02-15T04:17:37;98287.66;;;2.73;74.42
41703;BME280;861;48.808;9.006;2023-02-15T04:20:04;98288.88;;;2.67;74.01
41703;BME280;861;48.808;9.006;2023-02-15T04:22:50;98285.78;;;2.73;74.28
41703;BME280;861;48.808;9.006;2023-02-15T04:25:35;98288.97;;;2.75;73.85
41703;BME280;861;48.808;9.006;2023-02-15T04:28:01;98285.47;;;2.75;73.58
41703;BME280;861;48.808;9.006;2023-02-15T04:30:27;98278.47;;;2.52;74.60
41703;BME280;861;48.808;9.006;2023-02-15T04:32:55;98284.84;;;2.56;74.51
41703;BME280;861;48.808;9.006;2023-02-15T04:35:22;98279.38;;;2.83;72.55
41703;BME280;861;48.808;9.006;2023-02-15T04:37:48;98273.69;;;2.84;72.04
41703;BME280;861;48.808;9.006;2023-02-15T04:40:16;98267.56;;;2.70;73.09
41703;BME280;861;48.808;9.006;2023-02-15T04:42:43;98252.72;;;2.73;72.87
41703;BME280;861;48.808;9.006;2023-02-15T04:45:09;98267.91;;;2.77;71.72
41703;BME280;861;48.808;9.006;2023-02-15T04:47:35;98271.63;;;2.68;72.14
41703;BME280;861;48.808;9.006;2023-02-15T04:50:02;98260.72;;;2.64;71.80
41703;BME280;861;48.808;9.006;2023-02-15T04:52:28;98268.19;;;2.54;71.22
41703;BME280;861;48.808;9.006;2023-02-15T04:54:54;98275.00;;;2.51;70.83
41703;BME280;861;48.808;9.006;2023-02-15T04:57:20;98264.88;;;2.35;71.07
41703;BME280;861;48.808;9.006;2023-02-15T04:59:47;98269.28;;;2.17;71.84
41703;BME280;861;48.808;9.006;2023-02-15T05:02:13;98277.66;;;2.16;71.47
41703;BME280;861;48.808;9.006;2023-02-15T05:04:39;98271.06;;;2.22;70.82
41703;BME280;861;48.808;9.006;2023-02-15T05:07:05;98263.00;;;2.22;71.13
41703;BME280;861;48.808;9.006;2023-02-15T05:09:31;98266.59;;;2.17;71.47
41703;BME280;861;48.808;9.006;2023-02-15T05:11:57;98267.22;;;2.01;71.48
41703;BME280;861;48.808;9.006;2023-02-15T05:14:24;98266.44;;;1.73;73.03
41703;BME280;861;48.808;9.006;2023-02-15T05:16:50;98275.50;;;1.91;72.62
41703;BME280;861;48.808;9.006;2023-02-15T05:19:16;98262.34;;;1.89;72.90
41703;BME280;861;48.808;9.006;2023-02-15T05:21:42;98271.19;;;2.03;71.87
41703;BME280;861;48.808;9.006;2023-02-15T05:24:08;98268.69;;;2.20;70.86
41703;BME280;861;48.808;9.006;2023-02-15T05:26:53;98273.75;;;2.22;70.63
41703;BME280;861;48.808;9.006;2023-02-15T05:29:38;98269.53;;;1.94;72.23
41703;BME280;861;48.808;9.006;2023-02-15T05:32:04;98272.59;;;2.14;71.85
41703;BME280;861;48.808;9.006;2023-02-15T05:34:31;98266.97;;;2.38;70.08
41703;BME280;861;48.808;9.006;2023-02-15T05:36:57;98267.28;;;2.36;69.39
41703;BME280;861;48.808;9.006;2023-02-15T05:39:23;98264.91;;;2.21;69.50
41703;BME280;861;48.808;9.006;2023-02-15T05:41:49;98263.78;;;2.22;68.98
41703;BME280;861;48.808;9.006;2023-02-15T05:44:15;98271.84;;;2.22;68.71
41703;BME280;861;48.808;9.006;2023-02-15T05:46:42;98265.22;;;2.06;69.48
41703;BME280;861;48.808;9.006;2023-02-15T05:49:08;98267.31;;;1.82;69.94
41703;BME280;861;48.808;9.006;2023-02-15T05:51:34;98283.63;;;1.86;70.50
41703;BME280;861;48.808;9.006;2023-02-15T05:54:00;98266.53;;;1.95;70.61
41703;BME280;861;48.808;9.006;2023-02-15T05:56:26;98277.56;;;1.80;70.76
41703;BME280;861;48.808;9.006;2023-02-15T05:58:53;98267.63;;;1.81;71.43
41703;BME280;861;48.808;9.006;2023-02-15T06:01:20;98280.75;;;2.09;69.95
41703;BME280;861;48.808;9.006;2023-02-15T06:03:49;98274.38;;;2.19;69.21
41703;BME280;861;48.808;9.006;2023-02-15T06:06:16;98275.56;;;2.13;69.09
41703;BME280;861;48.808;9.006;2023-02-15T06:08:42;98275.56;;;2.13;68.60
41703;BME280;861;48.808;9.006;2023-02-15T06:11:09;98274.66;;;2.04;68.27
41703;BME280;861;48.808;9.006;2023-02-15T06:13:36;98273.16;;;2.25;68.01
41703;BME280;861;48.808;9.006;2023-02-15T06:16:03;98264.69;;;2.18;67.94
41703;BME280;861;48.808;9.006;2023-02-15T06:18:29;98266.22;;;2.24;68.05
41703;BME280;861;48.808;9.006;2023-02-15T06:20:55;98274.06;;;2.56;67.25
41703;BME280;861;48.808;9.006;2023-02-15T06:23:21;98276.69;;;2.83;66.12
41703;BME280;861;48.808;9.006;2023-02-15T06:25:47;98284.13;;;2.64;65.86
41703;BME280;861;48.808;9.006;2023-02-15T06:28:14;98280.56;;;2.41;66.03
41703;BME280;861;48.808;9.006;2023-02-15T06:30:40;98286.78;;;2.28;66.89
41703;BME280;861;48.808;9.006;2023-02-15T06:33:06;98291.56;;;2.18;67.66
41703;BME280;861;48.808;9.006;2023-02-15T06:35:32;98285.53;;;1.85;68.52
41703;BME280;861;48.808;9.006;2023-02-15T06:37:59;98300.34;;;1.83;69.64
41703;BME280;861;48.808;9.006;2023-02-15T06:40:25;98300.44;;;1.78;70.76
41703;BME280;861;48.808;9.006;2023-02-15T06:42:51;98293.06;;;1.70;71.63
41703;BME280;861;48.808;9.006;2023-02-15T06:45:17;98297.84;;;1.86;71.85
41703;BME280;861;48.808;9.006;2023-02-15T06:47:43;98291.97;;;1.98;71.69
41703;BME280;861;48.808;9.006;2023-02-15T06:50:10;98291.09;;;1.89;72.55
41703;BME280;861;48.808;9.006;2023-02-15T06:52:36;98299.44;;;2.01;71.43
41703;BME280;861;48.808;9.006;2023-02-15T06:55:04;98300.03;;;1.98;71.46
41703;BME280;861;48.808;9.006;2023-02-15T06:57:31;98297.34;;;2.11;71.47
41703;BME280;861;48.808;9.006;2023-02-15T06:59:59;98297.25;;;2.03;69.93
41703;BME280;861;48.808;9.006;2023-02-15T07:02:25;98296.53;;;1.97;70.66
41703;BME280;861;48.808;9.006;2023-02-15T07:04:52;98308.09;;;1.84;71.26
41703;BME280;861;48.808;9.006;2023-02-15T07:07:18;98310.19;;;1.87;71.44
41703;BME280;861;48.808;9.006;2023-02-15T07:09:44;98309.09;;;2.02;70.73
41703;BME280;861;48.808;9.006;2023-02-15T07:12:10;98309.38;;;2.00;71.02
41703;BME280;861;48.808;9.006;2023-02-15T07:14:54;98312.59;;;2.16;69.96
41703;BME280;861;48.808;9.006;2023-02-15T07:17:21;98318.44;;;2.04;70.07
41703;BME280;861;48.808;9.006;2023-02-15T07:19:47;98307.50;;;2.01;70.04
41703;BME280;861;48.808;9.006;2023-02-15T07:22:14;98318.13;;;2.19;69.97
41703;BME280;861;48.808;9.006;2023-02-15T07:24:40;98321.91;;;2.32;69.21
41703;BME280;861;48.808;9.006;2023-02-15T07:27:07;98316.81;;;2.30;68.75
41703;BME280;861;48.808;9.006;2023-02-15T07:29:34;98316.94;;;2.12;69.74
41703;BME280;861;48.808;9.006;2023-02-15T07:32:00;98318.34;;;2.09;70.43
41703;BME280;861;48.808;9.006;2023-02-15T07:34:26;98310.88;;;2.20;70.19
41703;BME280;861;48.808;9.006;2023-02-15T07:36:52;98312.16;;;2.36;69.41
41703;BME280;861;48.808;9.006;2023-02-15T07:39:19;98310.66;;;2.43;69.92
41703;BME280;861;48.808;9.006;2023-02-15T07:41:46;98320.63;;;2.29;70.00
41703;BME280;861;48.808;9.006;2023-02-15T07:44:14;98313.38;;;2.30;69.75
41703;BME280;861;48.808;9.006;2023-02-15T07:46:41;98313.94;;;2.40;69.71
41703;BME280;861;48.808;9.006;2023-02-15T07:49:08;98312.31;;;2.53;69.15
41703;BME280;861;48.808;9.006;2023-02-15T07:51:34;98308.81;;;2.52;68.25
41703;BME280;861;48.808;9.006;2023-02-15T07:54:00;98312.66;;;2.38;69.01
41703;BME280;861;48.808;9.006;2023-02-15T07:56:26;98318.41;;;2.45;69.04
41703;BME280;861;48.808;9.006;2023-02-15T07:58:52;98313.13;;;2.53;69.16
41703;BME280;861;48.808;9.006;2023-02-15T08:01:29;98320.28;;;2.58;69.33
41703;BME280;861;48.808;9.006;2023-02-15T08:04:02;98319.63;;;2.74;68.81
41703;BME280;861;48.808;9.006;2023-02-15T08:06:35;98311.16;;;2.81;68.92
41703;BME280;861;48.808;9.006;2023-02-15T08:09:07;98310.06;;;2.82;69.15
41703;BME280;861;48.808;9.006;2023-02-15T08:11:38;98310.66;;;3.01;69.15
41703;BME280;861;48.808;9.006;2023-02-15T08:14:21;98311.47;;;3.01;68.97
41703;BME280;861;48.808;9.006;2023-02-15T08:16:59;98310.66;;;3.23;69.20
41703;BME280;861;48.808;9.006;2023-02-15T08:19:33;98306.91;;;3.24;68.53
41703;BME280;861;48.808;9.006;2023-02-15T08:22:05;98306.16;;;3.32;68.19
41703;BME280;861;48.808;9.006;2023-02-15T08:24:36;98312.28;;;3.55;67.38
41703;BME280;861;48.808;9.006;2023-02-15T08:27:09;98306.25;;;3.49;68.07
41703;BME280;861;48.808;9.006;2023-02-15T08:29:39;98309.22;;;3.17;68.98
41703;BME280;861;48.808;9.006;2023-02-15T08:32:11;98306.06;;;3.15;69.86
41703;BME280;861;48.808;9.006;2023-02-15T08:34:41;98305.06;;;3.33;68.88
41703;BME280;861;48.808;9.006;2023-02-15T08:37:08;98302.91;;;2.99;70.94
41703;BME280;861;48.808;9.006;2023-02-15T08:39:35;98305.06;;;3.33;70.36
41703;BME280;861;48.808;9.006;2023-02-15T08:42:02;98299.31;;;3.57;68.81
41703;BME280;861;48.808;9.006;2023-02-15T08:44:28;98307.94;;;3.37;70.71
41703;BME280;861;48.808;9.006;2023-02-15T08:46:55;98296.28;;;3.50;70.11
41703;BME280;861;48.808;9.006;2023-02-15T08:49:24;98297.75;;;3.56;69.86
41703;BME280;861;48.808;9.006;2023-02-15T08:51:50;98294.59;;;3.09;71.45
41703;BME280;861;48.808;9.006;2023-02-15T08:54:20;98295.34;;;3.85;68.58
41703;BME280;861;48.808;9.006;2023-02-15T08:56:47;98295.56;;;3.66;68.94
41703;BME280;861;48.808;9.006;2023-02-15T08:59:21;98293.81;;;3.62;70.30
41703;BME280;861;48.808;9.006;2023-02-15T09:01:52;98292.06;;;3.66;71.12
41703;BME280;861;48.808;9.006;2023-02-15T09:04:20;98298.59;;;4.04;69.82
41703;BME280;861;48.808;9.006;2023-02-15T09:06:50;98286.94;;;4.25;69.46
41703;BME280;861;48.808;9.006;2023-02-15T09:09:19;98288.69;;;4.30;68.39
41703;BME280;861;48.808;9.006;2023-02-15T09:11:50;98282.19;;;4.31;68.58
41703;BME280;861;48.808;9.006;2023-02-15T09:14:20;98286.34;;;4.45;68.34
41703;BME280;861;48.808;9.006;2023-02-15T09:16:48;98283.34;;;4.72;67.58
41703;BME280;861;48.808;9.006;2023-02-15T09:19:19;98275.41;;;4.85;66.73
41703;BME280;861;48.808;9.006;2023-02-15T09:21:47;98271.47;;;4.82;67.48
41703;BME280;861;48.808;9.006;2023-02-15T09:24:17;98273.66;;;4.54;69.06
41703;BME280;861;48.808;9.006;2023-02-15T09:26:48;98269.69;;;4.69;69.21
41703;BME280;861;48.808;9.006;2023-02-15T09:29:17;98264.47;;;4.90;68.36
41703;BME280;861;48.808;9.006;2023-02-15T09:31:49;98263.03;;;4.75;69.43
41703;BME280;861;48.808;9.006;2023-02-15T09:34:21;98265.72;;;5.18;67.94
41703;BME280;861;48.808;9.006;2023-02-15T09:36:51;98264.56;;;5.27;67.75
41703;BME280;861;48.808;9.006;2023-02-15T09:39:26;98263.22;;;5.59;67.01
41703;BME280;861;48.808;9.006;2023-02-15T09:43:07;98263.50;;;5.83;65.47
41703;BME280;861;48.808;9.006;2023-02-15T09:46:26;98256.31;;;5.87;66.75
41703;BME280;861;48.808;9.006;2023-02-15T09:56:27;98256.41;;;5.99;65.42
41703;BME280;861;48.808;9.006;2023-02-15T09:59:40;98248.91;;;6.04;65.85
41703;BME280;861;48.808;9.006;2023-02-15T10:02:55;98244.44;;;6.38;64.61
41703;BME280;861;48.808;9.006;2023-02-15T10:16:30;98247.94;;;7.32;62.55
41703;BME280;861;48.808;9.006;2023-02-15T10:20:10;98241.72;;;6.99;64.91
41703;BME280;861;48.808;9.006;2023-02-15T10:23:40;98242.41;;;7.41;62.47
41703;BME280;861;48.808;9.006;2023-02-15T10:27:11;98244.72;;;7.51;64.02
41703;BME280;861;48.808;9.006;2023-02-15T10:33:02;98232.16;;;7.46;64.67
41703;BME280;861;48.808;9.006;2023-02-15T10:39:49;98225.09;;;8.14;62.85
41703;BME280;861;48.808;9.006;2023-02-15T10:43:23;98223.75;;;8.32;64.05
41703;BME280;861;48.808;9.006;2023-02-15T10:56:33;98215.09;;;8.94;61.67
41703;BME280;861;48.808;9.006;2023-02-15T11:03:25;98219.38;;;9.22;61.37
41703;BME280;861;48.808;9.006;2023-02-15T11:06:22;98214.28;;;9.05;63.03
41703;BME280;861;48.808;9.006;2023-02-15T11:09:01;98212.81;;;9.23;61.80
41703;BME280;861;48.808;9.006;2023-02-15T11:11:39;98212.88;;;9.39;63.08
41703;BME280;861;48.808;9.006;2023-02-15T11:15:03;98212.19;;;9.73;60.59
41703;BME280;861;48.808;9.006;2023-02-15T11:17:58;98210.56;;;9.57;61.83
41703;BME280;861;48.808;9.006;2023-02-15T11:21:02;98196.38;;;9.94;60.27
41703;BME280;861;48.808;9.006;2023-02-15T11:23:46;98195.47;;;10.06;61.05
41703;BME280;861;48.808;9.006;2023-02-15T11:26:37;98195.56;;;10.25;59.72
41703;BME280;861;48.808;9.006;2023-02-15T11:29:53;98198.03;;;10.30;60.14
41703;BME280;861;48.808;9.006;2023-02-15T11:32:50;98194.19;;;10.50;59.73
41703;BME280;861;48.808;9.006;2023-02-15T11:36:03;98190.75;;;10.53;59.35
41703;BME280;861;48.808;9.006;2023-02-15T11:38:37;98189.59;;;10.35;60.82
41703;BME280;861;48.808;9.006;2023-02-15T11:41:25;98182.47;;;10.65;60.49
41703;BME280;861;48.808;9.006;2023-02-15T11:44:17;98181.03;;;10.90;59.05
41703;BME280;861;48.808;9.006;2023-02-15T11:46:46;98187.13;;;10.83;59.43
41703;BME280;861;48.808;9.006;2023-02-15T11:49:35;98181.59;;;10.99;60.03
41703;BME280;861;48.808;9.006;2023-02-15T11:52:13;98180.78;;;11.18;59.81
41703;BME280;861;48.808;9.006;2023-02-15T11:55:01;98183.09;;;11.38;59.73
41703;BME280;861;48.808;9.006;2023-02-15T11:57:44;98183.06;;;11.57;59.56
41703;BME280;861;48.808;9.006;2023-02-15T12:00:38;98178.53;;;11.65;58.33
41703;BME280;861;48.808;9.006;2023-02-15T12:03:21;98180.22;;;11.73;58.43
41703;BME280;861;48.808;9.006;2023-02-15T12:06:03;98180.44;;;11.42;58.59
41703;BME280;861;48.808;9.006;2023-02-15T12:08:42;98180.56;;;11.49;58.95
41703;BME280;861;48.808;9.006;2023-02-15T12:11:34;98172.97;;;11.61;58.16
41703;BME280;861;48.808;9.006;2023-02-15T12:14:08;98166.75;;;11.61;57.87
41703;BME280;861;48.808;9.006;2023-02-15T12:16:49;98162.75;;;11.55;59.94
41703;BME280;861;48.808;9.006;2023-02-15T12:19:40;98161.84;;;11.92;58.83
41703;BME280;861;48.808;9.006;2023-02-15T12:22:24;98163.94;;;12.02;58.21
41703;BME280;861;48.808;9.006;2023-02-15T12:25:02;98162.31;;;12.24;58.82
41703;BME280;861;48.808;9.006;2023-02-15T12:27:44;98160.78;;;12.26;59.85
41703;BME280;861;48.808;9.006;2023-02-15T12:30:31;98160.66;;;12.46;59.13
41703;BME280;861;48.808;9.006;2023-02-15T12:36:18;98156.00;;;12.76;57.19
41703;BME280;861;48.808;9.006;2023-02-15T12:42:03;98149.34;;;12.73;56.18
41703;BME280;861;48.808;9.006;2023-02-15T12:44:37;98154.25;;;13.27;54.37
41703;BME280;861;48.808;9.006;2023-02-15T12:47:25;98141.75;;;13.26;54.33
41703;BME280;861;48.808;9.006;2023-02-15T12:50:21;98136.41;;;13.40;54.41
41703;BME280;861;48.808;9.006;2023-02-15T12:53:02;98129.41;;;13.46;54.95
41703;BME280;861;48.808;9.006;2023-02-15T12:55:59;98126.88;;;13.67;54.38
41703;BME280;861;48.808;9.006;2023-02-15T12:58:38;98126.94;;;13.74;53.08
41703;BME280;861;48.808;9.006;2023-02-15T13:01:25;98126.78;;;13.56;54.11
41703;BME280;861;48.808;9.006;2023-02-15T13:04:06;98117.53;;;13.71;53.66
41703;BME280;861;48.808;9.006;2023-02-15T13:06:51;98116.38;;;13.76;53.93
41703;BME280;861;48.808;9.006;2023-02-15T13:09:38;98115.25;;;13.80;52.95
41703;BME280;861;48.808;9.006;2023-02-15T13:12:23;98117.66;;;13.89;52.66
41703;BME280;861;48.808;9.006;2023-02-15T13:14:58;98107.19;;;14.02;53.67
41703;BME280;861;48.808;9.006;2023-02-15T13:17:30;98102.19;;;14.14;52.92
41703;BME280;861;48.808;9.006;2023-02-15T13:20:20;98102.34;;;14.42;51.82
41703;BME280;861;48.808;9.006;2023-02-15T13:23:05;98100.38;;;14.32;52.00
41703;BME280;861;48.808;9.006;2023-02-15T13:25:46;98097.13;;;14.20;53.26
41703;BME280;861;48.808;9.006;2023-02-15T13:28:25;98090.16;;;14.33;53.74
41703;BME280;861;48.808;9.006;2023-02-15T13:31:01;98094.16;;;14.46;53.28
41703;BME280;861;48.808;9.006;2023-02-15T13:33:36;98082.84;;;14.54;53.50
41703;BME280;861;48.808;9.006;2023-02-15T13:36:33;98081.69;;;14.59;53.09
41703;BME280;861;48.808;9.006;2023-02-15T13:39:33;98071.53;;;14.73;54.08
41703;BME280;861;48.808;9.006;2023-02-15T13:42:30;98070.03;;;14.93;53.66
41703;BME280;861;48.808;9.006;2023-02-15T13:48:59;98063.03;;;15.27;53.39
41703;BME280;861;48.808;9.006;2023-02-15T14:01:34;98060.31;;;15.77;51.28
41703;BME280;861;48.808;9.006;2023-02-15T14:10:57;98059.56;;;15.41;52.45
41703;BME280;861;48.808;9.006;2023-02-15T14:17:50;98055.25;;;15.47;53.28
41703;BME280;861;48.808;9.006;2023-02-15T14:20:57;98057.59;;;15.66;51.89
41703;BME280;861;48.808;9.006;2023-02-15T14:26:35;98054.84;;;15.49;52.70
41703;BME280;861;48.808;9.006;2023-02-15T14:32:51;98049.75;;;15.44;53.50
41703;BME280;861;48.808;9.006;2023-02-15T14:35:28;98051.31;;;15.69;51.59
41703;BME280;861;48.808;9.006;2023-02-15T14:41:43;98063.06;;;15.73;52.24
41703;BME280;861;48.808;9.006;2023-02-15T14:45:05;98062.28;;;15.76;52.12
41703;BME280;861;48.808;9.006;2023-02-15T14:48:01;98059.16;;;15.67;52.53
41703;BME280;861;48.808;9.006;2023-02-15T14:50:43;98052.84;;;15.91;51.58
41703;BME280;861;48.808;9.006;2023-02-15T14:56:20;98059.16;;;15.53;52.89
41703;BME280;861;48.808;9.006;2023-02-15T15:01:33;98063.47;;;15.65;52.21
41703;BME280;861;48.808;9.006;2023-02-15T15:04:21;98067.78;;;15.66;51.77
41703;BME280;861;48.808;9.006;2023-02-15T15:07:19;98059.16;;;15.71;51.73
41703;BME280;861;48.808;9.006;2023-02-15T15:10:33;98066.94;;;15.97;50.92
41703;BME280;861;48.808;9.006;2023-02-15T15:19:08;98060.69;;;15.93;52.34
41703;BME280;861;48.808;9.006;2023-02-15T15:21:53;98064.16;;;16.11;51.12
41703;BME280;861;48.808;9.006;2023-02-15T15:27:54;98060.66;;;15.96;51.34
41703;BME280;861;48.808;9.006;2023-02-15T15:35:53;98067.34;;;15.99;50.77
41703;BME280;861;48.808;9.006;2023-02-15T15:49:58;98063.03;;;15.27;51.90
41703;BME280;861;48.808;9.006;2023-02-15T15:52:28;98072.81;;;15.07;52.32
41703;BME280;861;48.808;9.006;2023-02-15T15:55:15;98065.72;;;14.96;52.47
41703;BME280;861;48.808;9.006;2023-02-15T15:57:55;98070.81;;;14.87;52.86
41703;BME280;861;48.808;9.006;2023-02-15T16:03:27;98063.72;;;14.75;52.20
41703;BME280;861;48.808;9.006;2023-02-15T16:05:55;98067.22;;;14.62;52.65
41703;BME280;861;48.808;9.006;2023-02-15T16:08:33;98068.34;;;14.50;52.95
41703;BME280;861;48.808;9.006;2023-02-15T16:11:27;98064.03;;;14.49;52.79
41703;BME280;861;48.808;9.006;2023-02-15T16:13:56;98076.81;;;14.28;53.32
41703;BME280;861;48.808;9.006;2023-02-15T16:16:29;98071.63;;;14.12;53.92
41703;BME280;861;48.808;9.006;2023-02-15T16:18:59;98086.38;;;13.90;54.24
41703;BME280;861;48.808;9.006;2023-02-15T16:21:35;98075.06;;;13.95;53.82
41703;BME280;861;48.808;9.006;2023-02-15T16:24:42;98079.91;;;13.58;54.73
41703;BME280;861;48.808;9.006;2023-02-15T16:27:40;98079.78;;;13.47;54.98
41703;BME280;861;48.808;9.006;2023-02-15T16:30:36;98073.31;;;13.22;55.52
41703;BME280;861;48.808;9.006;2023-02-15T16:33:11;98072.50;;;13.18;55.07